Погода Панскоена 2 недели

Смоленская область, Россия

23 мая-05 июня
  • 23мая
    Сегодня
    +7°
    +21°
    Ясно и безоблачно
    ВремяПогодаТемператураВлажностьДавлениеВетер, м/сВероятность осадков
    00:00Ясно и безоблачно+12°C51 %746 мм3.7 м/с2 %
    03:00Ясно и безоблачно+9°C57 %747 мм3.5 м/с2 %
    06:00Ясно и безоблачно+9°C60 %748 мм3.3 м/с2 %
    09:00Ясно и безоблачно+16°C52 %750 мм3.2 м/с2 %
    12:00Ясно и безоблачно+20°C36 %750 мм4.0 м/с2 %
    15:00Ясно и безоблачно+21°C34 %750 мм3.7 м/с2 %
    18:00Ясно и безоблачно+20°C37 %750 мм3.8 м/с2 %
    21:00Ясно и безоблачно+15°C53 %750 мм2.5 м/с2 %
  • 24мая
    Пятница
    +6°
    +21°
    Ясно и безоблачно
    ВремяПогодаТемператураВлажностьДавлениеВетер, м/сВероятность осадков
    00:00Ясно и безоблачно+10°C60 %751 мм2.5 м/с2 %
    03:00Ясно и безоблачно+8°C65 %752 мм2.4 м/с2 %
    06:00Практически безоблачно+8°C68 %753 мм2.1 м/с2 %
    09:00Ясно и безоблачно+15°C44 %754 мм2.3 м/с2 %
    12:00Ясно и безоблачно+19°C37 %754 мм3.5 м/с2 %
    15:00Ясно и безоблачно+20°C34 %753 мм3.8 м/с2 %
    18:00Ясно и безоблачно+20°C36 %752 мм3.3 м/с2 %
    21:00Ясно и безоблачно+14°C55 %752 мм2.2 м/с2 %
  • 25мая
    Суббота
    +8°
    +23°
    Практически безоблачно
    ВремяПогодаТемператураВлажностьДавлениеВетер, м/сВероятность осадков
    00:00Ясно и безоблачно+9°C60 %752 мм2.6 м/с2 %
    03:00Ясно и безоблачно+7°C69 %752 мм2.4 м/с2 %
    06:00Ясно и безоблачно+8°C72 %752 мм2.5 м/с2 %
    09:00Ясно и безоблачно+16°C54 %752 мм1.7 м/с2 %
    12:00Ясно и безоблачно+20°C39 %751 мм2.2 м/с2 %
    15:00Практически безоблачно+22°C34 %750 мм2.6 м/с2 %
    18:00Ясно и безоблачно+23°C37 %749 мм2.3 м/с2 %
    21:00Ясно и безоблачно+17°C60 %748 мм2.2 м/с2 %
  • 26мая
    Воскресенье
    +11°
    +26°
    Облачно с прояснениями
    ВремяПогодаТемператураВлажностьДавлениеВетер, м/сВероятность осадков
    00:00Ясно и безоблачно+11°C68 %748 мм2.6 м/с2 %
    03:00Ясно и безоблачно+9°C75 %748 мм2.5 м/с2 %
    06:00Ясно и безоблачно+11°C75 %748 мм2.5 м/с2 %
    09:00Ясно и безоблачно+19°C56 %748 мм1.8 м/с2 %
    12:00Небольшая облачность+23°C39 %748 мм2.4 м/с2 %
    15:00Облачно с прояснениями+25°C37 %747 мм2.4 м/с9 %
    18:00Облачно с прояснениями+24°C44 %747 мм3.5 м/с25 %
    21:00Ясно и безоблачно+19°C79 %748 мм2.4 м/с12 %
  • 27мая
    Понедельник
    +10°
    +24°
    Небольшая облачность
    ВремяПогодаТемператураВлажностьДавлениеВетер, м/сВероятность осадков
    00:00Практически безоблачно+15°C91 %748 мм2.6 м/с3 %
    03:00Ясно и безоблачно+13°C72 %749 мм2.8 м/с2 %
    06:00Ясно и безоблачно+12°C71 %750 мм2.5 м/с2 %
    09:00Ясно и безоблачно+18°C67 %750 мм2.1 м/с4 %
    12:00Практически безоблачно+22°C52 %751 мм2.6 м/с15 %
    15:00Небольшая облачность+23°C43 %750 мм2.0 м/с14 %
    18:00Пасмурно, сплошная облачность+23°C45 %750 мм2.0 м/с10 %
    21:00Практически безоблачно+19°C60 %750 мм2.6 м/с2 %
Мы используем cookies
Соглашаюсь